CheckWX is a tool to help pilots better visualize weather data.  It is not intended as a substitute for an official pre-flight weather briefing.

03:19:13 UTC

KGYL METAR
Glencoe Municipal Airport
Glencoe, Minnesota, USA
Current

24 mins ago

KGYL 270255Z AUTO 00000KT 10SM CLR 17/11 A3002 RMK AO2 T01710111
Observed
May-27 @ 02:55 UTC
Visibility
10 SM
Flight Rules
VFR
Cloud Levels
  • Clear skies
Temperature
17°C / 63°F
Dewpoint
11°C / 52°F
Humidity
68%
Altimeter
30.02" Hg
Pressure
1016.62 hPa
Previous

44 mins ago

KGYL 270235Z AUTO 00000KT 10SM CLR 17/10 A3001 RMK AO2 T01720104
Observed
May-27 @ 02:35 UTC
Visibility
10 SM
Flight Rules
VFR
Cloud Levels
  • Clear skies
Temperature
17°C / 63°F
Dewpoint
10°C / 50°F
Humidity
64%
Altimeter
30.01" Hg
Pressure
1016.22 hPa
Previous

1 hour ago

KGYL 270215Z AUTO 00000KT 10SM CLR 18/10 A3001 RMK AO2 T01770101
Observed
May-27 @ 02:15 UTC
Visibility
10 SM
Flight Rules
VFR
Cloud Levels
  • Clear skies
Temperature
18°C / 64°F
Dewpoint
10°C / 50°F
Humidity
60%
Altimeter
30.01" Hg
Pressure
1016.22 hPa